ADDS METAR Data INFO
IDs: Format: Raw Decoded Include TAF

Data at: 2045 UTC 19 Jul 2018

KROX 192035Z AUTO 21004KT 10SM CLR 26/21 A2980 RMK AO2 LTG DSNT N AND NW
KROX 192015Z AUTO 00000KT 10SM CLR 26/21 A2980 RMK AO2
KROX 191955Z AUTO 24004KT 10SM CLR 26/21 A2980 RMK AO2
KROX 191936Z AUTO 23004KT 10SM CLR 26/21 A2980 RMK AO2 LTG DSNT SE AND S
KROX 191915Z AUTO 21006KT 10SM CLR 26/21 A2981 RMK AO2 LTG DSNT SE AND S
KROX 191855Z AUTO 22005KT 10SM CLR 26/21 A2981 RMK AO2 LTG DSNT SE
KROX 191835Z AUTO 24005KT 10SM CLR 26/21 A2982 RMK AO2 LTG DSNT NE
KROX 191815Z AUTO 20006KT 10SM CLR 26/21 A2982 RMK AO2
KROX 191755Z AUTO 22005KT 10SM VCTS CLR 26/21 A2982 RMK AO2 LTG DSNT N AND SE
KROX 191735Z AUTO 24004KT 10SM CLR 25/21 A2982 RMK AO2
KROX 191715Z AUTO 24005KT 10SM CLR 26/21 A2982 RMK AO2
KROX 191655Z AUTO 22004KT 10SM CLR 26/21 A2982 RMK AO2
KROX 191635Z AUTO 22005KT 10SM CLR 25/21 A2982 RMK AO2
KROX 191615Z AUTO 21005KT 10SM CLR 26/21 A2982 RMK AO2
KROX 191555Z AUTO 00000KT 10SM CLR 25/21 A2982 RMK AO2
KROX 191535Z AUTO 22004KT 10SM CLR 24/21 A2982 RMK AO2
KROX 191515Z AUTO 19003KT 10SM CLR 24/21 A2982 RMK AO2
KROX 191455Z AUTO 20005KT 10SM CLR 24/20 A2982 RMK AO2
KROX 191435Z AUTO 19005KT 10SM CLR 24/20 A2982 RMK AO2
KROX 191415Z AUTO 20006KT 10SM SCT085 23/19 A2982 RMK AO2
KROX 191355Z AUTO 20007KT 10SM CLR 23/20 A2982 RMK AO2
KROX 191335Z AUTO 19006KT 10SM CLR 22/18 A2982 RMK AO2
KROX 191315Z AUTO 19006KT 10SM CLR 21/18 A2983 RMK AO2
KROX 191255Z AUTO 19007KT 10SM CLR 21/17 A2983 RMK AO2
KROX 191235Z AUTO 18007KT 10SM CLR 20/17 A2983 RMK AO2
KROX 191216Z AUTO 18006KT 10SM CLR 19/17 A2983 RMK AO2
KROX 191215Z AUTO 17005KT 10SM CLR 19/17 A2983 RMK AO2
KROX 191155Z AUTO 17004KT 10SM CLR 18/16 A2983 RMK AO2
KROX 191135Z AUTO 17004KT 10SM CLR 18/15 A2983 RMK AO2
KROX 191116Z AUTO 18003KT 10SM CLR 18/15 A2983 RMK AO2
KROX 191115Z AUTO 18003KT 10SM CLR 18/15 A2983 RMK AO2
KROX 191055Z AUTO 17005KT 10SM CLR 18/15 A2983 RMK AO2
KROX 191035Z AUTO 17004KT 10SM CLR 17/14 A2983 RMK AO2
KROX 191015Z AUTO 17004KT 10SM CLR 17/14 A2984 RMK AO2
KROX 190955Z AUTO 17005KT 7SM CLR 17/14 A2984 RMK AO2
KROX 190935Z AUTO 19003KT 7SM CLR 17/14 A2984 RMK AO2
KROX 190915Z AUTO 00000KT 10SM CLR 17/14 A2985 RMK AO2
KROX 190855Z AUTO 18004KT 10SM SCT085 17/14 A2986 RMK AO2
KROX 190835Z AUTO 18003KT 10SM BKN085 18/15 A2986 RMK AO2
KROX 190815Z AUTO 18005KT 10SM CLR 18/15 A2987 RMK AO2
KROX 190755Z AUTO 19006KT 10SM CLR 18/16 A2987 RMK AO2
KROX 190735Z AUTO 19005KT 10SM CLR 18/15 A2988 RMK AO2
KROX 190715Z AUTO 17005KT 10SM CLR 17/14 A2987 RMK AO2
KROX 190655Z AUTO 17005KT 10SM CLR 18/15 A2987 RMK AO2
KROX 190635Z AUTO 16004KT 10SM CLR 18/15 A2988 RMK AO2
KROX 190615Z AUTO 17004KT 10SM CLR 18/15 A2988 RMK AO2
KROX 190555Z AUTO 18003KT 10SM CLR 18/15 A2989 RMK AO2
KROX 190536Z AUTO 18004KT 10SM CLR 19/16 A2989 RMK AO2
KROX 190535Z AUTO 18004KT 10SM CLR 19/16 A2989 RMK AO2
KROX 190515Z AUTO 20004KT 10SM CLR 19/16 A2989 RMK AO2
KROX 190455Z AUTO 19005KT 10SM CLR 19/17 A2989 RMK AO2
KROX 190435Z AUTO 20005KT 10SM CLR 20/17 A2989 RMK AO2
KROX 190415Z AUTO 19005KT 10SM CLR 20/17 A2989 RMK AO2
KROX 190355Z AUTO 19005KT 10SM CLR 21/17 A2989 RMK AO2
KROX 190336Z AUTO 18005KT 10SM CLR 21/18 A2989 RMK AO2
KROX 190335Z AUTO 18005KT 10SM CLR 21/18 A2989 RMK AO2
KROX 190315Z AUTO 19005KT 10SM CLR 21/18 A2989 RMK AO2
KROX 190255Z AUTO 19005KT 10SM CLR 22/18 A2989 RMK AO2
KROX 190236Z AUTO 19005KT 10SM CLR 22/19 A2988 RMK AO2
KROX 190235Z AUTO 19005KT 10SM CLR 22/19 A2988 RMK AO2
KROX 190215Z AUTO 19005KT 10SM CLR 23/19 A2988 RMK AO2
KROX 190155Z AUTO 19005KT 10SM CLR 24/20 A2988 RMK AO2
KROX 190136Z AUTO 18005KT 10SM CLR 25/21 A2988 RMK AO2
KROX 190135Z AUTO 18005KT 10SM CLR 25/21 A2988 RMK AO2
KROX 190115Z AUTO 17006KT 10SM CLR 27/22 A2989 RMK AO2
KROX 190055Z AUTO 18005KT 10SM CLR 27/22 A2990 RMK AO2
KROX 190036Z AUTO 17006KT 10SM CLR 28/22 A2991 RMK AO2
KROX 190035Z AUTO 17006KT 10SM CLR 28/22 A2991 RMK AO2
KROX 190015Z AUTO 18009KT 10SM CLR 28/21 A2991 RMK AO2
KROX 182355Z AUTO 17007KT 10SM CLR 28/20 A2992 RMK AO2
KROX 182336Z AUTO 17007KT 10SM CLR 29/20 A2992 RMK AO2
KROX 182335Z AUTO 17008KT 10SM CLR 29/20 A2992 RMK AO2
KROX 182315Z AUTO 18008KT 10SM CLR 29/19 A2992 RMK AO2
KROX 182255Z AUTO 18007KT 10SM CLR 29/19 A2992 RMK AO2
KROX 182235Z AUTO 17006KT 10SM CLR 29/19 A2993 RMK AO2
KROX 182216Z AUTO 17006KT 10SM CLR 29/19 A2994 RMK AO2
KROX 182215Z AUTO 17004KT 10SM CLR 28/19 A2994 RMK AO2
KROX 182155Z AUTO 15006KT 10SM CLR 29/17 A2995 RMK AO2
KROX 182135Z AUTO 18007KT 10SM CLR 29/16 A2995 RMK AO2
KROX 182116Z AUTO 21006KT 10SM CLR 29/15 A2996 RMK AO2
KROX 182115Z AUTO 19006KT 10SM CLR 29/14 A2996 RMK AO2
KROX 182055Z AUTO 20011G15KT 10SM CLR 29/13 A2996 RMK AO2
KROX 182036Z AUTO 19008KT 10SM CLR 29/14 A2996 RMK AO2
KROX 182035Z AUTO 19007KT 10SM CLR 29/14 A2996 RMK AO2
KROX 182015Z AUTO 19007KT 10SM CLR 28/12 A2997 RMK AO2
KROX 181955Z AUTO 18008KT 135V205 10SM CLR 29/12 A2997 RMK AO2
KROX 181936Z AUTO 18006KT 10SM CLR 28/14 A2998 RMK AO2
KROX 181935Z AUTO 19008KT 10SM CLR 28/14 A2998 RMK AO2
KROX 181915Z AUTO 20008KT 10SM CLR 27/13 A2999 RMK AO2
KROX 181855Z AUTO 20006KT 10SM CLR 27/11 A2999 RMK AO2
KROX 181836Z AUTO 00000KT 10SM CLR 27/14 A2999 RMK AO2
KROX 181835Z AUTO 20003KT 10SM CLR 27/14 A2999 RMK AO2
KROX 181815Z AUTO 17006KT 10SM CLR 27/15 A3000 RMK AO2
KROX 181755Z AUTO 21005KT 10SM CLR 27/17 A3001 RMK AO2
KROX 181736Z AUTO 16006KT 10SM CLR 27/16 A3001 RMK AO2
KROX 181735Z AUTO 16006KT 10SM CLR 27/16 A3001 RMK AO2
KROX 181715Z AUTO 19008KT 10SM CLR 26/17 A3002 RMK AO2
KROX 181655Z AUTO 15007KT 135V215 10SM CLR 26/17 A3002 RMK AO2
KROX 181636Z AUTO 20004KT 10SM CLR 26/17 A3003 RMK AO2
KROX 181635Z AUTO 17004KT 10SM CLR 26/16 A3003 RMK AO2
KROX 181615Z AUTO 19004KT 10SM CLR 26/18 A3003 RMK AO2
KROX 181555Z AUTO 20006KT 10SM CLR 24/18 A3004 RMK AO2
KROX 181536Z AUTO 21006KT 10SM CLR 24/17 A3005 RMK AO2
KROX 181535Z AUTO 21007KT 10SM CLR 24/17 A3005 RMK AO2
KROX 181515Z AUTO 21008KT 10SM CLR 23/17 A3005 RMK AO2
KROX 181455Z AUTO 22007KT 10SM CLR 23/17 A3005 RMK AO2
KROX 181436Z AUTO 20007KT 10SM CLR 22/17 A3005 RMK AO2
KROX 181435Z AUTO 20007KT 10SM CLR 22/17 A3005 RMK AO2
KROX 181415Z AUTO 19006KT 10SM CLR 21/16 A3006 RMK AO2
KROX 181356Z AUTO 20006KT 10SM CLR 20/16 A3006 RMK AO2
KROX 181336Z AUTO 20007KT 10SM CLR 19/15 A3007 RMK AO2
KROX 181335Z AUTO 20006KT 10SM CLR 19/15 A3007 RMK AO2
KROX 181315Z AUTO 18006KT 10SM CLR 17/14 A3006 RMK AO2
KROX 181256Z AUTO 18005KT 10SM CLR 17/13 A3007 RMK AO2
KROX 181255Z AUTO 18005KT 10SM CLR 17/13 A3007 RMK AO2
KROX 181235Z AUTO 17005KT 10SM CLR 16/13 A3007 RMK AO2
KROX 181215Z AUTO 19004KT 10SM CLR 14/12 A3007 RMK AO2
KROX 181156Z AUTO 17004KT 10SM CLR 13/10 A3007 RMK AO2
KROX 181155Z AUTO 17004KT 10SM CLR 13/10 A3007 RMK AO2
KROX 181136Z AUTO 17004KT 10SM CLR 12/09 A3007 RMK AO2
KROX 181115Z AUTO 18004KT 10SM CLR 11/08 A3007 RMK AO2
KROX 181056Z AUTO 18004KT 10SM CLR 10/08 A3007 RMK AO2
KROX 181055Z AUTO 18004KT 10SM CLR 10/08 A3007 RMK AO2
KROX 181035Z AUTO 19004KT 10SM CLR 10/07 A3008 RMK AO2
KROX 181015Z AUTO 18004KT 7SM CLR 11/08 A3008 RMK AO2
KROX 180956Z AUTO 18003KT 10SM CLR 10/07 A3007 RMK AO2
KROX 180955Z AUTO 18003KT 10SM CLR 10/07 A3007 RMK AO2
KROX 180935Z AUTO 17004KT 10SM CLR 10/07 A3007 RMK AO2
KROX 180915Z AUTO 18003KT 10SM CLR 11/08 A3007 RMK AO2
KROX 180855Z AUTO 17003KT 10SM CLR 10/07 A3007 RMK AO2